createdAt,value
2018-09-16T00:00:40.965Z,1009.36
2018-09-16T00:01:41.313Z,1009.29
2018-09-16T00:02:41.022Z,1009.32
2018-09-16T00:03:40.971Z,1009.35
2018-09-16T00:04:40.957Z,1009.37
2018-09-16T00:05:40.958Z,1009.38
2018-09-16T00:06:40.955Z,1009.39
2018-09-16T00:07:40.951Z,1009.39
2018-09-16T00:08:41.255Z,1009.43
2018-09-16T00:09:40.965Z,1009.42
2018-09-16T00:10:40.948Z,1009.42
2018-09-16T00:11:40.941Z,1009.44
2018-09-16T00:12:40.940Z,1009.43
2018-09-16T00:13:40.960Z,1009.43
2018-09-16T00:14:41.017Z,1009.36
2018-09-16T00:15:40.932Z,1009.42
2018-09-16T00:16:40.930Z,1009.40
2018-09-16T00:17:44.768Z,1009.40
2018-09-16T00:18:40.931Z,1009.44
2018-09-16T00:19:41.211Z,1009.43
2018-09-16T00:20:41.265Z,1009.44
2018-09-16T00:21:41.005Z,1009.42
2018-09-16T00:22:41.140Z,1009.43
2018-09-16T00:23:40.919Z,1009.39
2018-09-16T00:24:40.993Z,1009.39
2018-09-16T00:25:41.145Z,1009.43
2018-09-16T00:26:40.908Z,1009.42
2018-09-16T00:27:41.488Z,1009.39
2018-09-16T00:28:40.940Z,1009.38
2018-09-16T00:29:41.663Z,1009.39
2018-09-16T00:30:41.108Z,1009.39
2018-09-16T00:31:40.900Z,1009.37
2018-09-16T00:32:40.893Z,1009.38
2018-09-16T00:33:40.893Z,1009.36
2018-09-16T00:34:41.624Z,1009.36
2018-09-16T00:35:40.888Z,1009.32
2018-09-16T00:36:40.884Z,1009.34
2018-09-16T00:37:40.943Z,1009.34
2018-09-16T00:38:40.890Z,1009.36
2018-09-16T00:39:40.877Z,1009.34
2018-09-16T00:40:40.874Z,1009.34
2018-09-16T00:41:40.871Z,1009.33
2018-09-16T00:42:40.868Z,1009.31
2018-09-16T00:43:40.877Z,1009.33
2018-09-16T00:44:40.862Z,1009.30
2018-09-16T00:45:40.862Z,1009.26
2018-09-16T00:46:40.875Z,1009.31
2018-09-16T00:47:40.860Z,1009.36
2018-09-16T00:48:40.856Z,1009.35
2018-09-16T00:49:40.895Z,1009.33
2018-09-16T00:50:40.848Z,1009.35
2018-09-16T00:51:42.657Z,1009.37
2018-09-16T00:52:40.839Z,1009.37
2018-09-16T00:53:40.837Z,1009.36
2018-09-16T00:54:40.837Z,1009.36
2018-09-16T00:55:40.834Z,1009.38
2018-09-16T00:56:40.893Z,1009.32
2018-09-16T00:57:40.826Z,1009.34
2018-09-16T00:58:40.869Z,1009.34
2018-09-16T00:59:40.831Z,1009.31
2018-09-16T01:00:40.819Z,1009.34
2018-09-16T01:01:40.813Z,1009.31
2018-09-16T01:02:40.813Z,1009.33
2018-09-16T01:03:40.808Z,1009.32
2018-09-16T01:04:40.809Z,1009.32
2018-09-16T01:05:40.805Z,1009.27
2018-09-16T01:06:40.802Z,1009.29
2018-09-16T01:07:40.797Z,1009.26
2018-09-16T01:08:40.795Z,1009.27
2018-09-16T01:09:40.795Z,1009.29
2018-09-16T01:10:40.790Z,1009.27
2018-09-16T01:11:40.792Z,1009.27
2018-09-16T01:12:40.784Z,1009.28
2018-09-16T01:13:40.780Z,1009.31
2018-09-16T01:14:40.809Z,1009.29
2018-09-16T01:15:40.778Z,1009.26
2018-09-16T01:16:40.802Z,1009.29
2018-09-16T01:17:40.768Z,1009.25
2018-09-16T01:18:40.772Z,1009.27
2018-09-16T01:19:40.763Z,1009.26
2018-09-16T01:20:40.764Z,1009.26
2018-09-16T01:21:40.805Z,1009.27
2018-09-16T01:22:40.758Z,1009.26
2018-09-16T01:23:40.750Z,1009.28
2018-09-16T01:24:40.768Z,1009.29
2018-09-16T01:25:40.742Z,1009.24
2018-09-16T01:26:40.746Z,1009.24
2018-09-16T01:27:40.741Z,1009.22
2018-09-16T01:28:40.735Z,1009.24
2018-09-16T01:29:40.754Z,1009.23
2018-09-16T01:30:40.729Z,1009.24
2018-09-16T01:31:40.726Z,1009.22
2018-09-16T01:32:40.723Z,1009.25
2018-09-16T01:33:40.725Z,1009.24
2018-09-16T01:34:40.729Z,1009.20
2018-09-16T01:35:40.715Z,1009.23
2018-09-16T01:36:40.713Z,1009.25
2018-09-16T01:37:40.708Z,1009.20
2018-09-16T01:38:40.703Z,1009.21
2018-09-16T01:39:40.743Z,1009.23
2018-09-16T01:40:40.698Z,1009.18
2018-09-16T01:41:40.695Z,1009.19
2018-09-16T01:42:40.689Z,1009.22
2018-09-16T01:43:40.693Z,1009.22
2018-09-16T01:44:40.682Z,1009.24
2018-09-16T01:45:40.683Z,1009.21
2018-09-16T01:46:40.680Z,1009.23
2018-09-16T01:47:40.682Z,1009.23
2018-09-16T01:48:40.684Z,1009.20
2018-09-16T01:49:40.669Z,1009.18
2018-09-16T01:50:40.667Z,1009.24
2018-09-16T01:51:40.660Z,1009.21
2018-09-16T01:52:40.655Z,1009.15
2018-09-16T01:53:40.654Z,1009.17
2018-09-16T01:54:40.650Z,1009.17
2018-09-16T01:55:40.650Z,1009.15
2018-09-16T01:56:40.644Z,1009.19
2018-09-16T01:57:40.651Z,1009.17
2018-09-16T01:58:40.682Z,1009.18
2018-09-16T01:59:40.783Z,1009.18
2018-09-16T02:00:40.632Z,1009.17
2018-09-16T02:01:40.662Z,1009.20
2018-09-16T02:02:40.624Z,1009.20
2018-09-16T02:03:40.623Z,1009.20
2018-09-16T02:04:43.001Z,1009.21
2018-09-16T02:05:40.613Z,1009.22
2018-09-16T02:06:40.612Z,1009.24
2018-09-16T02:07:40.767Z,1009.26
2018-09-16T02:08:40.603Z,1009.28
2018-09-16T02:09:40.609Z,1009.30
2018-09-16T02:10:40.602Z,1009.30
2018-09-16T02:11:40.612Z,1009.32
2018-09-16T02:12:40.591Z,1009.30
2018-09-16T02:13:40.588Z,1009.29
2018-09-16T02:14:40.585Z,1009.33
2018-09-16T02:15:40.583Z,1009.33
2018-09-16T02:16:40.582Z,1009.32
2018-09-16T02:17:40.575Z,1009.30
2018-09-16T02:18:40.574Z,1009.24
2018-09-16T02:19:40.568Z,1009.24
2018-09-16T02:20:40.567Z,1009.25
2018-09-16T02:21:40.573Z,1009.22
2018-09-16T02:22:40.559Z,1009.23
2018-09-16T02:23:40.563Z,1009.22
2018-09-16T02:24:40.550Z,1009.19
2018-09-16T02:25:40.548Z,1009.16
2018-09-16T02:26:40.550Z,1009.17
2018-09-16T02:27:40.544Z,1009.14
2018-09-16T02:28:40.538Z,1009.17
2018-09-16T02:29:40.534Z,1009.12
2018-09-16T02:30:41.207Z,1009.13
2018-09-16T02:31:40.530Z,1009.09
2018-09-16T02:32:40.527Z,1009.10
2018-09-16T02:33:40.520Z,1009.08
2018-09-16T02:34:40.520Z,1009.10
2018-09-16T02:35:40.514Z,1009.10
2018-09-16T02:36:40.512Z,1009.10
2018-09-16T02:37:40.514Z,1009.08
2018-09-16T02:38:40.508Z,1009.08
2018-09-16T02:39:40.501Z,1009.07
2018-09-16T02:40:40.499Z,1009.07
2018-09-16T02:41:40.494Z,1009.04
2018-09-16T02:42:40.490Z,1009.01
2018-09-16T02:43:40.487Z,1009.01
2018-09-16T02:44:40.486Z,1009.04
2018-09-16T02:45:40.481Z,1009.01
2018-09-16T02:46:40.477Z,1009.02
2018-09-16T02:47:40.481Z,1008.99
2018-09-16T02:48:40.468Z,1009.00
2018-09-16T02:49:40.465Z,1009.00
2018-09-16T02:50:40.461Z,1009.00
2018-09-16T02:51:40.459Z,1009.00
2018-09-16T02:52:40.457Z,1009.02
2018-09-16T02:53:40.452Z,1009.04
2018-09-16T02:54:40.452Z,1009.01
2018-09-16T02:55:40.447Z,1009.00
2018-09-16T02:56:40.442Z,1008.98
2018-09-16T02:57:40.437Z,1009.00
2018-09-16T02:58:40.440Z,1008.99
2018-09-16T02:59:40.434Z,1008.98
2018-09-16T03:00:40.479Z,1009.00
2018-09-16T03:01:40.424Z,1009.04
2018-09-16T03:02:40.419Z,1009.02
2018-09-16T03:03:40.416Z,1009.00
2018-09-16T03:04:40.416Z,1009.01
2018-09-16T03:05:40.412Z,1009.00
2018-09-16T03:06:40.409Z,1008.98
2018-09-16T03:07:40.409Z,1008.94
2018-09-16T03:08:40.399Z,1008.93
2018-09-16T03:09:40.396Z,1008.88
2018-09-16T03:10:40.398Z,1008.87
2018-09-16T03:11:40.465Z,1008.85
2018-09-16T03:12:40.385Z,1008.86
2018-09-16T03:13:40.381Z,1008.85
2018-09-16T03:14:40.386Z,1008.86
2018-09-16T03:15:40.373Z,1008.89
2018-09-16T03:16:40.372Z,1008.89
2018-09-16T03:17:40.368Z,1008.89
2018-09-16T03:18:40.368Z,1008.88
2018-09-16T03:19:40.358Z,1008.91
2018-09-16T03:20:40.355Z,1008.88
2018-09-16T03:21:40.352Z,1008.83
2018-09-16T03:22:40.348Z,1008.84
2018-09-16T03:23:40.346Z,1008.81
2018-09-16T03:24:40.346Z,1008.82
2018-09-16T03:25:40.337Z,1008.82
2018-09-16T03:26:40.332Z,1008.86
2018-09-16T03:27:40.334Z,1008.84
2018-09-16T03:28:40.327Z,1008.84
2018-09-16T03:29:40.321Z,1008.83
2018-09-16T03:30:40.323Z,1008.85
2018-09-16T03:31:40.316Z,1008.82
2018-09-16T03:32:40.317Z,1008.85
2018-09-16T03:33:40.317Z,1008.81
2018-09-16T03:34:40.303Z,1008.86
2018-09-16T03:35:40.305Z,1008.86
2018-09-16T03:36:40.299Z,1008.82
2018-09-16T03:37:40.293Z,1008.84
2018-09-16T03:38:40.292Z,1008.81
2018-09-16T03:39:40.285Z,1008.80
2018-09-16T03:40:40.280Z,1008.75
2018-09-16T03:41:40.279Z,1008.75
2018-09-16T03:42:40.273Z,1008.77
2018-09-16T03:43:40.277Z,1008.75
2018-09-16T03:44:40.271Z,1008.74
2018-09-16T03:45:40.266Z,1008.75
2018-09-16T03:46:40.327Z,1008.74
2018-09-16T03:47:40.259Z,1008.70
2018-09-16T03:48:40.250Z,1008.72
2018-09-16T03:49:40.258Z,1008.72
2018-09-16T03:50:40.266Z,1008.74
2018-09-16T03:51:40.241Z,1008.69
2018-09-16T03:52:40.237Z,1008.69
2018-09-16T03:53:40.239Z,1008.71
2018-09-16T03:54:40.229Z,1008.71
2018-09-16T03:55:40.236Z,1008.68
2018-09-16T03:56:40.220Z,1008.67
2018-09-16T03:57:40.217Z,1008.68
2018-09-16T03:58:40.220Z,1008.71
2018-09-16T03:59:40.222Z,1008.69
2018-09-16T04:00:40.205Z,1008.73
2018-09-16T04:01:40.204Z,1008.72
2018-09-16T04:02:40.417Z,1008.69
2018-09-16T04:03:40.200Z,1008.68
2018-09-16T04:04:40.193Z,1008.68
2018-09-16T04:05:40.187Z,1008.64
2018-09-16T04:06:40.193Z,1008.64
2018-09-16T04:07:40.180Z,1008.64
2018-09-16T04:08:40.178Z,1008.65
2018-09-16T04:09:40.178Z,1008.63
2018-09-16T04:10:40.168Z,1008.61
2018-09-16T04:11:40.170Z,1008.60
2018-09-16T04:12:40.165Z,1008.61
2018-09-16T04:13:40.162Z,1008.61
2018-09-16T04:14:40.156Z,1008.59
2018-09-16T04:15:40.148Z,1008.62
2018-09-16T04:16:40.149Z,1008.61
2018-09-16T04:17:40.140Z,1008.67
2018-09-16T04:18:40.139Z,1008.68
2018-09-16T04:19:40.133Z,1008.66
2018-09-16T04:20:40.127Z,1008.69
2018-09-16T04:21:40.124Z,1008.70
2018-09-16T04:22:40.123Z,1008.70
2018-09-16T04:23:40.117Z,1008.68
2018-09-16T04:24:40.119Z,1008.69
2018-09-16T04:25:40.116Z,1008.71
2018-09-16T04:26:40.106Z,1008.68
2018-09-16T04:27:40.100Z,1008.67
2018-09-16T04:28:40.096Z,1008.68
2018-09-16T04:29:40.096Z,1008.65
2018-09-16T04:30:40.090Z,1008.69
2018-09-16T04:31:40.090Z,1008.67
2018-09-16T04:32:40.083Z,1008.71
2018-09-16T04:33:40.816Z,1008.71
2018-09-16T04:34:40.072Z,1008.71
2018-09-16T04:35:40.070Z,1008.71
2018-09-16T04:36:40.063Z,1008.75
2018-09-16T04:37:40.062Z,1008.75
2018-09-16T04:38:40.060Z,1008.72
2018-09-16T04:39:40.053Z,1008.74
2018-09-16T04:40:40.046Z,1008.75
2018-09-16T04:41:40.046Z,1008.72
2018-09-16T04:42:40.040Z,1008.77
2018-09-16T04:43:40.037Z,1008.76
2018-09-16T04:44:40.035Z,1008.74
2018-09-16T04:45:40.029Z,1008.75
2018-09-16T04:46:40.028Z,1008.77
2018-09-16T04:47:40.019Z,1008.77
2018-09-16T04:48:40.015Z,1008.80
2018-09-16T04:49:40.020Z,1008.82
2018-09-16T04:50:40.007Z,1008.84
2018-09-16T04:51:40.003Z,1008.83
2018-09-16T04:52:40.001Z,1008.82
2018-09-16T04:53:39.996Z,1008.85
2018-09-16T04:54:39.994Z,1008.80
2018-09-16T04:55:39.986Z,1008.82
2018-09-16T04:56:39.983Z,1008.83
2018-09-16T04:57:39.979Z,1008.81
2018-09-16T04:58:39.974Z,1008.83
2018-09-16T04:59:39.971Z,1008.83
2018-09-16T05:00:39.965Z,1008.79
2018-09-16T05:01:39.962Z,1008.83
2018-09-16T05:02:39.962Z,1008.85
2018-09-16T05:03:39.955Z,1008.81
2018-09-16T05:04:39.952Z,1008.84
2018-09-16T05:05:39.949Z,1008.88
2018-09-16T05:06:39.940Z,1008.91
2018-09-16T05:07:39.937Z,1008.95
2018-09-16T05:08:39.961Z,1008.90
2018-09-16T05:09:39.928Z,1008.90
2018-09-16T05:10:39.925Z,1008.86
2018-09-16T05:11:39.925Z,1008.83
2018-09-16T05:12:39.916Z,1008.88
2018-09-16T05:13:39.915Z,1008.86
2018-09-16T05:14:39.909Z,1008.87
2018-09-16T05:15:39.907Z,1008.82
2018-09-16T05:16:39.899Z,1008.83
2018-09-16T05:17:39.897Z,1008.84
2018-09-16T05:18:39.893Z,1008.84
2018-09-16T05:19:39.888Z,1008.81
2018-09-16T05:20:39.883Z,1008.82
2018-09-16T05:21:39.883Z,1008.86
2018-09-16T05:22:39.883Z,1008.87
2018-09-16T05:23:39.872Z,1008.86
2018-09-16T05:24:39.868Z,1008.87
2018-09-16T05:25:39.863Z,1008.87
2018-09-16T05:26:39.865Z,1008.90
2018-09-16T05:27:39.856Z,1008.92
2018-09-16T05:28:39.854Z,1008.89
2018-09-16T05:29:39.848Z,1008.95
2018-09-16T05:30:39.844Z,1008.95
2018-09-16T05:31:39.844Z,1008.97
2018-09-16T05:32:39.836Z,1008.98
2018-09-16T05:33:39.831Z,1008.99
2018-09-16T05:34:39.829Z,1008.96
2018-09-16T05:35:39.824Z,1009.03
2018-09-16T05:36:39.818Z,1009.02
2018-09-16T05:37:39.815Z,1009.05
2018-09-16T05:38:39.817Z,1009.11
2018-09-16T05:39:39.813Z,1009.09
2018-09-16T05:40:39.804Z,1009.08
2018-09-16T05:41:39.802Z,1009.06
2018-09-16T05:42:39.796Z,1009.09
2018-09-16T05:43:39.793Z,1009.04
2018-09-16T05:44:39.787Z,1009.05
2018-09-16T05:45:39.786Z,1009.05
2018-09-16T05:46:39.782Z,1009.03
2018-09-16T05:47:39.780Z,1009.06
2018-09-16T05:48:39.772Z,1009.08
2018-09-16T05:49:39.773Z,1009.08
2018-09-16T05:50:39.764Z,1009.07
2018-09-16T05:51:39.761Z,1009.09
2018-09-16T05:52:39.821Z,1009.10
2018-09-16T05:53:39.753Z,1009.08
2018-09-16T05:54:39.749Z,1009.07
2018-09-16T05:55:39.746Z,1009.05
2018-09-16T05:56:39.741Z,1009.03
2018-09-16T05:57:39.738Z,1009.01
2018-09-16T05:58:39.734Z,1009.01
2018-09-16T05:59:39.731Z,1008.99
2018-09-16T06:00:39.726Z,1009.03
2018-09-16T06:01:39.726Z,1009.00
2018-09-16T06:02:39.718Z,1008.96
2018-09-16T06:03:39.720Z,1008.99
2018-09-16T06:04:39.745Z,1008.96
2018-09-16T06:05:39.975Z,1008.96
2018-09-16T06:06:39.704Z,1009.00
2018-09-16T06:07:39.701Z,1009.00
2018-09-16T06:08:39.698Z,1008.96
2018-09-16T06:09:39.693Z,1008.96
2018-09-16T06:10:39.719Z,1008.98
2018-09-16T06:11:39.684Z,1008.99
2018-09-16T06:12:39.688Z,1008.96
2018-09-16T06:13:39.684Z,1008.98
2018-09-16T06:14:39.685Z,1008.99
2018-09-16T06:15:39.672Z,1009.00
2018-09-16T06:16:39.666Z,1009.01
2018-09-16T06:17:39.662Z,1009.00
2018-09-16T06:18:39.658Z,1008.98
2018-09-16T06:19:39.654Z,1009.01
2018-09-16T06:20:39.656Z,1008.99
2018-09-16T06:21:39.647Z,1009.01
2018-09-16T06:22:39.681Z,1009.00
2018-09-16T06:23:39.645Z,1008.95
2018-09-16T06:24:39.635Z,1008.95
2018-09-16T06:25:39.630Z,1008.96
2018-09-16T06:26:39.627Z,1008.96
2018-09-16T06:27:39.623Z,1009.01
2018-09-16T06:28:39.618Z,1009.01
2018-09-16T06:29:39.614Z,1008.97
2018-09-16T06:30:39.618Z,1009.00
2018-09-16T06:31:39.609Z,1008.97
2018-09-16T06:32:39.605Z,1009.01
2018-09-16T06:33:39.653Z,1008.97
2018-09-16T06:34:39.594Z,1008.99
2018-09-16T06:35:39.593Z,1008.96
2018-09-16T06:36:40.351Z,1009.00
2018-09-16T06:37:39.585Z,1008.99
2018-09-16T06:38:39.581Z,1008.97
2018-09-16T06:39:39.580Z,1009.01
2018-09-16T06:40:39.573Z,1008.98
2018-09-16T06:41:39.568Z,1008.98
2018-09-16T06:42:39.568Z,1009.01
2018-09-16T06:43:39.562Z,1009.01
2018-09-16T06:44:39.560Z,1009.03
2018-09-16T06:45:39.555Z,1009.05
2018-09-16T06:46:39.551Z,1009.05
2018-09-16T06:47:39.549Z,1009.04
2018-09-16T06:48:39.542Z,1009.00
2018-09-16T06:49:39.541Z,1009.01
2018-09-16T06:50:39.536Z,1008.95
2018-09-16T06:51:39.536Z,1008.96
2018-09-16T06:52:39.527Z,1008.92
2018-09-16T06:53:39.535Z,1008.96
2018-09-16T06:54:39.523Z,1008.94
2018-09-16T06:55:39.520Z,1008.97
2018-09-16T06:56:39.515Z,1008.99
2018-09-16T06:57:39.511Z,1008.99
2018-09-16T06:58:39.507Z,1008.96
2018-09-16T06:59:39.505Z,1009.02
2018-09-16T07:00:39.508Z,1008.99
2018-09-16T07:01:39.496Z,1009.00
2018-09-16T07:02:39.492Z,1009.02
2018-09-16T07:03:39.490Z,1009.05
2018-09-16T07:04:39.485Z,1009.04
2018-09-16T07:05:39.484Z,1009.04
2018-09-16T07:06:39.479Z,1009.00
2018-09-16T07:07:39.476Z,1008.97
2018-09-16T07:08:39.471Z,1008.93
2018-09-16T07:09:39.469Z,1008.95
2018-09-16T07:10:39.467Z,1008.89
2018-09-16T07:11:39.461Z,1008.88
2018-09-16T07:12:39.457Z,1008.86
2018-09-16T07:13:39.458Z,1008.88
2018-09-16T07:14:39.455Z,1008.86
2018-09-16T07:15:39.458Z,1008.90
2018-09-16T07:16:39.444Z,1008.92
2018-09-16T07:17:39.440Z,1008.88
2018-09-16T07:18:39.438Z,1008.90
2018-09-16T07:19:39.435Z,1008.88
2018-09-16T07:20:39.439Z,1008.86
2018-09-16T07:21:39.430Z,1008.88
2018-09-16T07:22:39.424Z,1008.84
2018-09-16T07:23:39.421Z,1008.84
2018-09-16T07:24:39.418Z,1008.84
2018-09-16T07:25:39.414Z,1008.86
2018-09-16T07:26:39.433Z,1008.85
2018-09-16T07:27:39.408Z,1008.88
2018-09-16T07:28:39.407Z,1008.84
2018-09-16T07:29:39.402Z,1008.86
2018-09-16T07:30:39.397Z,1008.90
2018-09-16T07:31:39.402Z,1008.91
2018-09-16T07:32:39.409Z,1008.90
2018-09-16T07:33:39.396Z,1008.92
2018-09-16T07:34:39.388Z,1008.87
2018-09-16T07:35:39.382Z,1008.85
2018-09-16T07:36:39.382Z,1008.87
2018-09-16T07:37:39.375Z,1008.91
2018-09-16T07:38:39.381Z,1008.89
2018-09-16T07:39:39.369Z,1008.90
2018-09-16T07:40:39.365Z,1008.88
2018-09-16T07:41:39.362Z,1008.89
2018-09-16T07:42:39.369Z,1008.92
2018-09-16T07:43:39.369Z,1008.92
2018-09-16T07:44:39.354Z,1008.91
2018-09-16T07:45:39.351Z,1008.88
2018-09-16T07:46:39.349Z,1008.90
2018-09-16T07:47:39.345Z,1008.90
2018-09-16T07:48:39.342Z,1008.87
2018-09-16T07:49:39.338Z,1008.88
2018-09-16T07:50:39.342Z,1008.89
2018-09-16T07:51:39.333Z,1008.90
2018-09-16T07:52:39.329Z,1008.89
2018-09-16T07:53:39.331Z,1008.89
2018-09-16T07:54:39.330Z,1008.88
2018-09-16T07:55:39.321Z,1008.87
2018-09-16T07:56:39.317Z,1008.83
2018-09-16T07:57:39.315Z,1008.84
2018-09-16T07:58:39.312Z,1008.81
2018-09-16T07:59:39.310Z,1008.81
2018-09-16T08:00:39.345Z,1008.82
2018-09-16T08:01:39.303Z,1008.82
2018-09-16T08:02:39.300Z,1008.81
2018-09-16T08:03:39.298Z,1008.84
2018-09-16T08:04:39.303Z,1008.75
2018-09-16T08:05:39.400Z,1008.76
2018-09-16T08:06:39.289Z,1008.74
2018-09-16T08:07:39.287Z,1008.73
2018-09-16T08:08:39.510Z,1008.70
2018-09-16T08:09:39.280Z,1008.70
2018-09-16T08:10:39.278Z,1008.70
2018-09-16T08:11:39.284Z,1008.73
2018-09-16T08:12:39.271Z,1008.72
2018-09-16T08:13:39.317Z,1008.71
2018-09-16T08:14:39.267Z,1008.72
2018-09-16T08:15:39.266Z,1008.74
2018-09-16T08:16:39.261Z,1008.75
2018-09-16T08:17:39.263Z,1008.75
2018-09-16T08:18:39.256Z,1008.72
2018-09-16T08:19:39.255Z,1008.71
2018-09-16T08:20:39.257Z,1008.72
2018-09-16T08:21:39.250Z,1008.67
2018-09-16T08:22:39.249Z,1008.67
2018-09-16T08:23:39.304Z,1008.64
2018-09-16T08:24:39.241Z,1008.65
2018-09-16T08:25:39.241Z,1008.61
2018-09-16T08:26:39.236Z,1008.61
2018-09-16T08:27:39.235Z,1008.58
2018-09-16T08:28:39.233Z,1008.59
2018-09-16T08:29:39.231Z,1008.58
2018-09-16T08:30:39.227Z,1008.55
2018-09-16T08:31:39.225Z,1008.58
2018-09-16T08:32:39.222Z,1008.56
2018-09-16T08:33:39.219Z,1008.56
2018-09-16T08:34:39.218Z,1008.57
2018-09-16T08:35:39.218Z,1008.56
2018-09-16T08:36:39.216Z,1008.57
2018-09-16T08:37:39.210Z,1008.52
2018-09-16T08:38:39.220Z,1008.48
2018-09-16T08:39:39.914Z,1008.53
2018-09-16T08:40:39.206Z,1008.47
2018-09-16T08:41:39.211Z,1008.46
2018-09-16T08:42:39.200Z,1008.48
2018-09-16T08:43:39.201Z,1008.43
2018-09-16T08:44:39.196Z,1008.46
2018-09-16T08:45:39.229Z,1008.45
2018-09-16T08:46:39.195Z,1008.43
2018-09-16T08:47:39.191Z,1008.44
2018-09-16T08:48:39.195Z,1008.47
2018-09-16T08:49:39.187Z,1008.44
2018-09-16T08:50:39.271Z,1008.43
2018-09-16T08:51:39.183Z,1008.39
2018-09-16T08:52:39.183Z,1008.44
2018-09-16T08:53:39.181Z,1008.42
2018-09-16T08:54:39.177Z,1008.44
2018-09-16T08:55:39.179Z,1008.39
2018-09-16T08:56:39.174Z,1008.40
2018-09-16T08:57:39.175Z,1008.38
2018-09-16T08:58:39.171Z,1008.37
2018-09-16T08:59:39.170Z,1008.34
2018-09-16T09:00:39.173Z,1008.35
2018-09-16T09:01:39.167Z,1008.36
2018-09-16T09:02:39.165Z,1008.35
2018-09-16T09:03:39.166Z,1008.37
2018-09-16T09:04:39.161Z,1008.34
2018-09-16T09:05:39.160Z,1008.33
2018-09-16T09:06:39.163Z,1008.33
2018-09-16T09:07:39.157Z,1008.34
2018-09-16T09:08:39.161Z,1008.32
2018-09-16T09:09:39.156Z,1008.33
2018-09-16T09:10:39.159Z,1008.30
2018-09-16T09:11:39.152Z,1008.31
2018-09-16T09:12:39.153Z,1008.31
2018-09-16T09:13:39.149Z,1008.31
2018-09-16T09:14:39.149Z,1008.27
2018-09-16T09:15:39.148Z,1008.20
2018-09-16T09:16:39.145Z,1008.18
2018-09-16T09:17:39.146Z,1008.21
2018-09-16T09:18:39.143Z,1008.19
2018-09-16T09:19:39.145Z,1008.20
2018-09-16T09:20:39.140Z,1008.22
2018-09-16T09:21:39.139Z,1008.18
2018-09-16T09:22:39.139Z,1008.23
2018-09-16T09:23:39.138Z,1008.20
2018-09-16T09:24:39.136Z,1008.24
2018-09-16T09:25:39.134Z,1008.19
2018-09-16T09:26:39.132Z,1008.23
2018-09-16T09:27:39.133Z,1008.22
2018-09-16T09:28:39.134Z,1008.21
2018-09-16T09:29:39.129Z,1008.23
2018-09-16T09:30:39.133Z,1008.21
2018-09-16T09:31:39.130Z,1008.20
2018-09-16T09:32:39.126Z,1008.22
2018-09-16T09:33:39.131Z,1008.19
2018-09-16T09:34:39.130Z,1008.14
2018-09-16T09:35:39.200Z,1008.17
2018-09-16T09:36:39.130Z,1008.18
2018-09-16T09:37:39.124Z,1008.15
2018-09-16T09:38:39.120Z,1008.14
2018-09-16T09:39:39.121Z,1008.16
2018-09-16T09:40:39.118Z,1008.11
2018-09-16T09:41:39.120Z,1008.12
2018-09-16T09:42:39.136Z,1008.09
2018-09-16T09:43:39.118Z,1008.09
2018-09-16T09:44:39.126Z,1008.06
2018-09-16T09:45:39.115Z,1008.06
2018-09-16T09:46:39.114Z,1008.00
2018-09-16T09:47:39.122Z,1008.02
2018-09-16T09:48:39.113Z,1007.99
2018-09-16T09:49:39.114Z,1007.98
2018-09-16T09:50:39.113Z,1007.99
2018-09-16T09:51:39.112Z,1007.97
2018-09-16T09:52:39.132Z,1007.96
2018-09-16T09:53:39.113Z,1007.94
2018-09-16T09:54:39.110Z,1007.91
2018-09-16T09:55:39.111Z,1007.92
2018-09-16T09:56:39.109Z,1007.87
2018-09-16T09:57:39.111Z,1007.85
2018-09-16T09:58:39.115Z,1007.86
2018-09-16T09:59:39.110Z,1007.83
2018-09-16T10:00:39.109Z,1007.86
2018-09-16T10:01:39.113Z,1007.85
2018-09-16T10:02:39.107Z,1007.87
2018-09-16T10:03:39.107Z,1007.89
2018-09-16T10:04:39.107Z,1007.85
2018-09-16T10:05:39.106Z,1007.82
2018-09-16T10:06:39.107Z,1007.81
2018-09-16T10:07:39.108Z,1007.80
2018-09-16T10:08:39.105Z,1007.75
2018-09-16T10:09:39.105Z,1007.74
2018-09-16T10:10:39.105Z,1007.71
2018-09-16T10:11:39.107Z,1007.68
2018-09-16T10:12:39.110Z,1007.69
2018-09-16T10:13:39.105Z,1007.65
2018-09-16T10:14:39.105Z,1007.66
2018-09-16T10:15:39.104Z,1007.66
2018-09-16T10:16:39.104Z,1007.65
2018-09-16T10:17:39.109Z,1007.67
2018-09-16T10:18:39.104Z,1007.59
2018-09-16T10:19:39.105Z,1007.60
2018-09-16T10:20:39.103Z,1007.62
2018-09-16T10:21:39.108Z,1007.59
2018-09-16T10:22:39.134Z,1007.55
2018-09-16T10:23:39.105Z,1007.54
2018-09-16T10:24:39.108Z,1007.49
2018-09-16T10:25:39.108Z,1007.47
2018-09-16T10:26:39.104Z,1007.43
2018-09-16T10:27:39.109Z,1007.42
2018-09-16T10:28:39.132Z,1007.38
2018-09-16T10:29:39.108Z,1007.39
2018-09-16T10:30:39.107Z,1007.39
2018-09-16T10:31:39.105Z,1007.33
2018-09-16T10:32:39.105Z,1007.37
2018-09-16T10:33:39.118Z,1007.32
2018-09-16T10:34:39.106Z,1007.30
2018-09-16T10:35:39.107Z,1007.30
2018-09-16T10:36:39.105Z,1007.26
2018-09-16T10:37:39.107Z,1007.26
2018-09-16T10:38:39.218Z,1007.28
2018-09-16T10:39:39.120Z,1007.25
2018-09-16T10:40:39.116Z,1007.26
2018-09-16T10:41:39.119Z,1007.29
2018-09-16T10:42:39.449Z,1007.28
2018-09-16T10:43:39.109Z,1007.27
2018-09-16T10:44:39.111Z,1007.22
2018-09-16T10:45:39.109Z,1007.21
2018-09-16T10:46:39.113Z,1007.19
2018-09-16T10:47:39.119Z,1007.17
2018-09-16T10:48:39.112Z,1007.18
2018-09-16T10:49:39.114Z,1007.16
2018-09-16T10:50:39.121Z,1007.15
2018-09-16T10:51:39.114Z,1007.13
2018-09-16T10:52:39.114Z,1007.13
2018-09-16T10:53:39.116Z,1007.14
2018-09-16T10:54:39.118Z,1007.18
2018-09-16T10:55:39.118Z,1007.14
2018-09-16T10:56:39.121Z,1007.10
2018-09-16T10:57:39.121Z,1007.09
2018-09-16T10:58:39.117Z,1007.11
2018-09-16T10:59:39.127Z,1007.08
2018-09-16T11:00:39.121Z,1007.05
2018-09-16T11:01:39.119Z,1007.05
2018-09-16T11:02:39.122Z,1007.08
2018-09-16T11:03:39.121Z,1007.06
2018-09-16T11:04:39.122Z,1007.06
2018-09-16T11:05:39.130Z,1007.05
2018-09-16T11:06:39.130Z,1007.04
2018-09-16T11:07:39.125Z,1007.05
2018-09-16T11:08:39.124Z,1007.04
2018-09-16T11:09:39.126Z,1007.06
2018-09-16T11:10:39.126Z,1007.06
2018-09-16T11:11:39.127Z,1006.99
2018-09-16T11:12:39.130Z,1007.05
2018-09-16T11:13:39.852Z,1007.05
2018-09-16T11:14:39.261Z,1007.06
2018-09-16T11:15:39.182Z,1007.06
2018-09-16T11:16:39.132Z,1007.04
2018-09-16T11:17:39.149Z,1007.06
2018-09-16T11:18:39.160Z,1007.03
2018-09-16T11:19:39.139Z,1007.02
2018-09-16T11:20:39.136Z,1006.97
2018-09-16T11:21:39.136Z,1006.98
2018-09-16T11:22:39.177Z,1006.92
2018-09-16T11:23:39.140Z,1006.92
2018-09-16T11:24:39.140Z,1006.89
2018-09-16T11:25:39.199Z,1006.91
2018-09-16T11:26:39.144Z,1006.87
2018-09-16T11:27:39.146Z,1006.88
2018-09-16T11:28:39.146Z,1006.83
2018-09-16T11:29:39.146Z,1006.85
2018-09-16T11:30:39.145Z,1006.79
2018-09-16T11:31:39.147Z,1006.80
2018-09-16T11:32:39.153Z,1006.75
2018-09-16T11:33:39.154Z,1006.75
2018-09-16T11:34:39.181Z,1006.76
2018-09-16T11:35:39.196Z,1006.73
2018-09-16T11:36:39.211Z,1006.75
2018-09-16T11:37:39.157Z,1006.77
2018-09-16T11:38:39.188Z,1006.72
2018-09-16T11:39:39.622Z,1006.75
2018-09-16T11:40:39.162Z,1006.74
2018-09-16T11:41:39.162Z,1006.72
2018-09-16T11:42:39.168Z,1006.67
2018-09-16T11:43:39.587Z,1006.67
2018-09-16T11:44:39.164Z,1006.70
2018-09-16T11:45:39.211Z,1006.69
2018-09-16T11:46:39.195Z,1006.66
2018-09-16T11:47:39.193Z,1006.68
2018-09-16T11:48:39.170Z,1006.66
2018-09-16T11:49:39.174Z,1006.63
2018-09-16T11:50:39.177Z,1006.63
2018-09-16T11:51:39.200Z,1006.65
2018-09-16T11:52:39.176Z,1006.63
2018-09-16T11:53:39.177Z,1006.63
2018-09-16T11:54:39.181Z,1006.64
2018-09-16T11:55:39.184Z,1006.62
2018-09-16T11:56:39.182Z,1006.62
2018-09-16T11:57:39.204Z,1006.57
2018-09-16T11:58:39.280Z,1006.57
2018-09-16T11:59:42.848Z,1006.57
2018-09-16T12:00:39.187Z,1006.57
2018-09-16T12:01:39.190Z,1006.55
2018-09-16T12:02:39.195Z,1006.58
2018-09-16T12:03:39.202Z,1006.56
2018-09-16T12:04:39.202Z,1006.58
2018-09-16T12:05:39.198Z,1006.55